Time;durP1;ratioP1;P1;durP2;ratioP2;P2;SDS_P1;SDS_P2;PMS_P1;PMS_P2;Temp;Humidity;BMP_temperature;BMP_pressure;BME280_temperature;BME280_humidity;BME280_pressure;Samples;Min_cycle;Max_cycle;Signal;HPM_P1;HPM_P2
2023/02/14 00:01:31;;;;;;;40.07;23.50;;;6.40;99.90;;;;;;5113577;28;20601;-57
2023/02/14 00:04:00;;;;;;;45.60;25.43;;;6.40;99.90;;;;;;5108419;28;20226;-57
2023/02/14 00:06:31;;;;;;;45.83;25.07;;;6.30;99.90;;;;;;5123572;27;20222;-57
2023/02/14 00:09:00;;;;;;;42.20;25.10;;;6.40;99.90;;;;;;5126063;27;20230;-57
2023/02/14 00:11:28;;;;;;;41.93;24.10;;;6.30;99.90;;;;;;5134520;27;20589;-58
2023/02/14 00:16:42;;;;;;;43.23;25.63;;;6.40;99.90;;;;;;5113737;28;20704;-58
2023/02/14 00:19:14;;;;;;;41.90;23.77;;;6.40;99.90;;;;;;5114041;28;20214;-58
2023/02/14 00:21:42;;;;;;;44.07;25.10;;;6.40;99.90;;;;;;5113414;28;20303;-57
2023/02/14 00:24:12;;;;;;;44.27;25.10;;;6.50;99.90;;;;;;5113944;28;20685;-57
2023/02/14 00:26:41;;;;;;;45.97;25.80;;;6.50;99.90;;;;;;5113759;28;20685;-57
2023/02/14 00:29:11;;;;;;;48.60;27.50;;;6.40;99.90;;;;;;5113814;28;20224;-57
2023/02/14 00:31:40;;;;;;;43.63;25.13;;;6.50;99.90;;;;;;5112934;28;20233;-57
2023/02/14 00:34:09;;;;;;;41.50;23.33;;;6.40;99.90;;;;;;5113428;28;20661;-57
2023/02/14 00:36:39;;;;;;;41.67;23.37;;;6.60;99.90;;;;;;5124262;27;20228;-57
2023/02/14 00:39:08;;;;;;;48.30;27.03;;;6.80;99.90;;;;;;5107044;27;20584;-56
2023/02/14 00:41:37;;;;;;;43.43;24.10;;;6.90;99.90;;;;;;5115406;27;20221;-57
2023/02/14 00:44:07;;;;;;;46.00;25.97;;;7.00;99.90;;;;;;5106303;28;20233;-57
2023/02/14 00:46:35;;;;;;;41.73;24.07;;;6.90;99.90;;;;;;5113107;28;20588;-57
2023/02/14 00:49:04;;;;;;;48.03;26.47;;;6.80;99.90;;;;;;5095092;28;20237;-57
2023/02/14 00:51:32;;;;;;;36.87;20.90;;;6.60;99.90;;;;;;5113149;28;20582;-57
2023/02/14 00:54:04;;;;;;;49.30;26.50;;;6.70;99.90;;;;;;5113514;28;20209;-57
2023/02/14 00:56:32;;;;;;;45.10;26.00;;;6.70;99.90;;;;;;5112991;28;20225;-57
2023/02/14 00:59:00;;;;;;;49.43;27.40;;;6.50;99.90;;;;;;5094417;28;20228;-57
2023/02/14 01:01:28;;;;;;;48.03;26.47;;;6.50;99.90;;;;;;5094301;28;20240;-57
2023/02/14 01:03:57;;;;;;;47.47;26.73;;;6.40;99.90;;;;;;5094452;28;20254;-57
2023/02/14 01:06:26;;;;;;;45.57;25.97;;;6.40;99.90;;;;;;5122322;28;20230;-57
2023/02/14 01:08:54;;;;;;;50.23;27.67;;;6.40;99.90;;;;;;5125246;28;20747;-57
2023/02/14 01:11:24;;;;;;;46.30;24.00;;;6.30;99.90;;;;;;5133649;28;20223;-57
2023/02/14 01:13:57;;;;;;;47.77;25.23;;;6.40;99.90;;;;;;5108344;28;20229;-57
2023/02/14 01:16:27;;;;;;;46.60;26.60;;;6.40;99.90;;;;;;5096279;28;20674;-57
2023/02/14 01:18:56;;;;;;;46.23;27.50;;;6.60;99.90;;;;;;5113070;28;20271;-58
2023/02/14 01:21:26;;;;;;;42.67;23.83;;;6.50;99.90;;;;;;5113262;28;20218;-58
2023/02/14 01:23:58;;;;;;;43.73;23.67;;;6.50;99.90;;;;;;5112943;28;20214;-58
2023/02/14 01:26:28;;;;;;;51.13;27.30;;;6.50;99.90;;;;;;5113294;28;20711;-57
2023/02/14 01:28:56;;;;;;;47.63;27.57;;;6.40;99.90;;;;;;5112943;28;20228;-58
2023/02/14 01:31:26;;;;;;;40.93;22.50;;;6.40;99.90;;;;;;5093909;28;20226;-55
2023/02/14 01:33:57;;;;;;;49.80;26.60;;;6.60;99.90;;;;;;5094438;28;20316;-58
2023/02/14 01:36:30;;;;;;;48.53;26.97;;;6.60;99.90;;;;;;5094182;28;20257;-57
2023/02/14 01:39:01;;;;;;;49.47;27.63;;;6.40;99.90;;;;;;5104849;28;20239;-57
2023/02/14 01:41:33;;;;;;;47.47;25.70;;;6.30;99.90;;;;;;5133658;28;20696;-58
2023/02/14 01:44:02;;;;;;;41.30;22.17;;;6.20;99.90;;;;;;5106499;28;20241;-56
2023/02/14 01:46:32;;;;;;;42.00;21.77;;;6.50;99.90;;;;;;5112743;28;20218;-57
2023/02/14 01:49:06;;;;;;;50.23;26.23;;;6.70;99.90;;;;;;5112730;28;20218;-57
2023/02/14 01:51:37;;;;;;;45.83;26.77;;;6.90;99.90;;;;;;5094216;28;20230;-57
2023/02/14 01:54:07;;;;;;;46.30;26.70;;;6.60;99.90;;;;;;5112718;28;20219;-57
2023/02/14 01:56:41;;;;;;;47.10;27.23;;;6.60;99.90;;;;;;5112421;28;20241;-58
2023/02/14 01:59:14;;;;;;;44.50;24.60;;;6.50;99.90;;;;;;5094406;28;20225;-57
2023/02/14 02:01:43;;;;;;;43.40;23.20;;;6.40;99.90;;;;;;5111870;28;20233;-57
2023/02/14 02:04:15;;;;;;;45.03;21.53;;;6.50;99.90;;;;;;5114559;28;20222;-57
2023/02/14 02:06:46;;;;;;;52.23;27.73;;;6.80;99.90;;;;;;5124567;28;20221;-58
2023/02/14 02:09:19;;;;;;;51.67;27.63;;;6.80;99.90;;;;;;5104727;28;20229;-57
2023/02/14 02:11:49;;;;;;;42.47;21.87;;;6.50;99.90;;;;;;5115261;28;20222;-57
2023/02/14 02:14:20;;;;;;;43.93;23.50;;;6.60;99.90;;;;;;5103590;28;20222;-57
2023/02/14 02:17:06;;;;;;;51.50;26.63;;;6.60;99.90;;;;;;5115776;28;20234;-58
2023/02/14 02:20:10;;;;;;;49.97;26.33;;;6.50;99.90;;;;;;5115974;28;20225;-57
2023/02/14 02:23:18;;;;;;;48.30;24.77;;;6.30;99.90;;;;;;5115892;28;20236;-58
2023/02/14 02:26:31;;;;;;;45.10;24.07;;;6.30;99.90;;;;;;5115834;28;20218;-57
2023/02/14 02:29:20;;;;;;;51.87;27.03;;;6.30;99.90;;;;;;5079904;28;20241;-58
2023/02/14 02:32:04;;;;;;;50.73;27.40;;;6.50;99.90;;;;;;5115241;28;20313;-58
2023/02/14 02:35:13;;;;;;;52.87;28.63;;;6.40;99.90;;;;;;5092481;28;20229;-57
2023/02/14 02:37:58;;;;;;;43.70;22.80;;;6.20;99.90;;;;;;5127350;27;20232;-57
2023/02/14 02:40:35;;;;;;;47.60;24.13;;;6.70;99.90;;;;;;5077035;28;20640;-57
2023/02/14 02:43:15;;;;;;;50.37;25.27;;;6.80;99.90;;;;;;5095397;28;20253;-56
2023/02/14 02:48:40;;;;;;;44.13;25.80;;;7.00;99.90;;;;;;5095003;28;20261;-57
2023/02/14 02:54:06;;;;;;;43.27;22.67;;;6.50;99.90;;;;;;5076934;28;20223;-57
2023/02/14 02:56:46;;;;;;;51.17;27.83;;;6.50;99.90;;;;;;5076551;28;20258;-57
2023/02/14 02:59:19;;;;;;;49.30;27.63;;;6.30;99.90;;;;;;5089282;28;20233;-58
2023/02/14 03:01:58;;;;;;;50.97;28.00;;;6.40;99.90;;;;;;5094932;28;20706;-58
2023/02/14 03:10:02;;;;;;;49.97;27.80;;;6.10;99.90;;;;;;5097047;28;20229;-58
2023/02/14 03:12:58;;;;;;;52.90;27.07;;;6.00;99.90;;;;;;5096556;28;20261;-57
2023/02/14 03:15:40;;;;;;;53.83;28.70;;;6.00;99.90;;;;;;5108843;28;20582;-56
2023/02/14 03:21:06;;;;;;;46.37;23.90;;;6.10;99.90;;;;;;5109425;27;20618;-58
2023/02/14 03:23:43;;;;;;;52.50;27.90;;;6.40;99.90;;;;;;5095685;28;20291;-57
2023/02/14 03:26:16;;;;;;;51.30;28.20;;;6.20;99.90;;;;;;5096497;28;20222;-58
2023/02/14 03:28:53;;;;;;;49.80;26.50;;;6.10;99.90;;;;;;5096335;28;20230;-58
2023/02/14 03:31:29;;;;;;;44.87;23.80;;;6.00;99.90;;;;;;5096042;28;20724;-57
2023/02/14 03:34:01;;;;;;;51.80;29.40;;;6.20;99.90;;;;;;5096337;28;20245;-57
2023/02/14 03:36:34;;;;;;;55.13;29.93;;;6.20;99.90;;;;;;5099496;28;20253;-57
2023/02/14 03:39:08;;;;;;;46.00;25.30;;;6.10;99.90;;;;;;5103344;28;20280;-57
2023/02/14 03:41:43;;;;;;;57.67;29.83;;;6.20;99.90;;;;;;5092705;28;20230;-58
2023/02/14 03:44:17;;;;;;;54.50;29.40;;;6.10;99.90;;;;;;5099599;28;20236;-57
2023/02/14 03:46:49;;;;;;;46.03;24.77;;;6.00;99.90;;;;;;5095856;28;20261;-58
2023/02/14 03:49:22;;;;;;;51.83;28.00;;;6.00;99.90;;;;;;5114253;28;20214;-57
2023/02/14 03:51:53;;;;;;;52.27;29.17;;;6.00;99.90;;;;;;5114162;28;20222;-58
2023/02/14 03:54:22;;;;;;;52.10;27.73;;;5.90;99.90;;;;;;5114493;28;20229;-57
2023/02/14 03:56:56;;;;;;;53.90;29.80;;;6.00;99.90;;;;;;5114057;28;20237;-58
2023/02/14 03:59:28;;;;;;;52.13;28.97;;;6.10;99.90;;;;;;5114328;28;20232;-56
2023/02/14 04:02:02;;;;;;;53.50;29.07;;;5.90;99.90;;;;;;5113684;28;20608;-57
2023/02/14 04:04:34;;;;;;;49.13;24.43;;;5.80;99.90;;;;;;5108514;28;20222;-57
2023/02/14 04:07:10;;;;;;;58.27;30.47;;;6.10;99.90;;;;;;5126110;27;20680;-57
2023/02/14 04:09:38;;;;;;;46.47;24.80;;;5.90;99.90;;;;;;5129826;27;20232;-56
2023/02/14 04:12:08;;;;;;;54.70;29.37;;;6.10;99.90;;;;;;5134702;27;20225;-57
2023/02/14 04:14:36;;;;;;;57.20;29.47;;;5.90;99.90;;;;;;5123104;27;20234;-58
2023/02/14 04:19:51;;;;;;;58.03;30.90;;;5.80;99.90;;;;;;5113849;28;20251;-58
2023/02/14 04:22:19;;;;;;;48.73;25.87;;;5.80;99.90;;;;;;5113843;28;20230;-58
2023/02/14 04:24:47;;;;;;;62.33;31.07;;;6.00;99.90;;;;;;5113807;28;20226;-58
2023/02/14 04:27:17;;;;;;;57.77;31.27;;;5.90;99.90;;;;;;5113938;28;20586;-57
2023/02/14 04:29:48;;;;;;;47.83;24.90;;;5.80;99.90;;;;;;5113376;28;20249;-58
2023/02/14 04:32:18;;;;;;;59.47;30.73;;;5.90;99.90;;;;;;5111876;28;20714;-58
2023/02/14 04:34:47;;;;;;;55.63;30.10;;;5.90;99.90;;;;;;5109529;28;20240;-57
2023/02/14 04:37:17;;;;;;;50.73;26.83;;;5.90;99.90;;;;;;5125677;27;20230;-58
2023/02/14 04:39:45;;;;;;;48.83;25.70;;;6.00;99.90;;;;;;5130327;27;21283;-57
2023/02/14 04:42:13;;;;;;;56.00;30.33;;;6.00;99.90;;;;;;5134195;27;20225;-57
2023/02/14 04:44:43;;;;;;;66.57;31.27;;;5.80;99.90;;;;;;5119504;27;20237;-57
2023/02/14 04:47:11;;;;;;;61.53;32.00;;;5.80;99.90;;;;;;5105320;28;20237;-57
2023/02/14 04:49:39;;;;;;;48.20;26.83;;;5.70;99.90;;;;;;5113264;28;20695;-57
2023/02/14 04:52:07;;;;;;;59.43;28.70;;;5.90;99.90;;;;;;5113251;28;20222;-57
2023/02/14 04:54:35;;;;;;;59.70;31.47;;;6.00;99.90;;;;;;5113369;28;20233;-58
2023/02/14 04:57:03;;;;;;;59.30;32.23;;;5.90;99.90;;;;;;5113393;28;20233;-58
2023/02/14 04:59:31;;;;;;;50.67;25.50;;;5.70;99.90;;;;;;5112989;28;20221;-57
2023/02/14 05:02:00;;;;;;;60.17;29.50;;;5.90;99.90;;;;;;5112715;28;20577;-57
2023/02/14 05:04:28;;;;;;;54.50;27.17;;;6.10;99.90;;;;;;5107788;28;20232;-58
2023/02/14 05:06:56;;;;;;;63.93;32.33;;;6.20;99.90;;;;;;5125211;28;20225;-58
2023/02/14 05:09:24;;;;;;;61.47;33.03;;;6.10;99.90;;;;;;5127194;28;20231;-58
2023/02/14 05:11:52;;;;;;;54.83;29.73;;;5.90;99.90;;;;;;5134087;28;20584;-57
2023/02/14 05:14:20;;;;;;;58.13;31.40;;;5.90;99.90;;;;;;5122691;28;20250;-58
2023/02/14 05:16:48;;;;;;;57.53;27.60;;;6.00;99.90;;;;;;5112969;28;20732;-58
2023/02/14 05:19:18;;;;;;;61.20;27.27;;;6.00;99.90;;;;;;5112889;28;20221;-56
2023/02/14 05:21:46;;;;;;;69.40;33.63;;;6.20;99.90;;;;;;5113094;28;20636;-57
2023/02/14 05:24:14;;;;;;;58.63;30.73;;;6.10;99.90;;;;;;5112939;28;20225;-57
2023/02/14 05:26:42;;;;;;;63.43;32.23;;;5.80;99.90;;;;;;5112891;28;20225;-58
2023/02/14 05:29:10;;;;;;;62.87;33.33;;;5.70;99.90;;;;;;5113177;28;20230;-57
2023/02/14 05:31:38;;;;;;;65.77;33.03;;;5.90;99.90;;;;;;5119733;28;20466;-57
2023/02/14 05:34:07;;;;;;;54.43;27.33;;;5.80;99.90;;;;;;5115638;28;20266;-57
2023/02/14 05:36:36;;;;;;;66.17;33.43;;;5.70;99.90;;;;;;5117097;28;20463;-57
2023/02/14 05:39:04;;;;;;;66.37;32.70;;;5.70;99.90;;;;;;5123419;28;20600;-57
2023/02/14 05:41:32;;;;;;;61.00;30.30;;;5.80;99.90;;;;;;5128351;28;20680;-56
2023/02/14 05:44:00;;;;;;;62.17;30.60;;;5.70;99.90;;;;;;5126274;28;20258;-58
2023/02/14 05:46:29;;;;;;;57.87;30.37;;;5.90;99.90;;;;;;5115660;28;20589;-58
2023/02/14 05:48:57;;;;;;;58.33;31.30;;;5.70;99.90;;;;;;5116994;28;20240;-58
2023/02/14 05:51:25;;;;;;;56.90;31.47;;;5.60;99.90;;;;;;5116794;28;20218;-57
2023/02/14 05:53:56;;;;;;;52.13;25.40;;;5.50;99.90;;;;;;5116866;28;20226;-58
2023/02/14 05:56:24;;;;;;;61.40;31.30;;;5.90;99.90;;;;;;5116755;28;20232;-57
2023/02/14 05:58:52;;;;;;;63.20;31.77;;;5.70;99.90;;;;;;5117280;27;20230;-57
2023/02/14 06:01:20;;;;;;;62.13;32.20;;;5.90;99.90;;;;;;5133568;27;20241;-58
2023/02/14 06:03:49;;;;;;;60.93;30.57;;;5.90;99.90;;;;;;5120522;27;20554;-57
2023/02/14 06:06:17;;;;;;;58.27;29.20;;;5.80;99.90;;;;;;5120862;27;20248;-58
2023/02/14 06:08:45;;;;;;;57.37;30.50;;;5.60;99.90;;;;;;5121782;27;20209;-58
2023/02/14 06:11:15;;;;;;;56.40;30.20;;;5.50;99.90;;;;;;5126505;27;20228;-58
2023/02/14 06:13:43;;;;;;;55.40;30.17;;;5.50;99.90;;;;;;5130193;27;20576;-56
2023/02/14 06:16:11;;;;;;;55.40;30.10;;;5.50;99.90;;;;;;5108364;27;20237;-57
2023/02/14 06:18:39;;;;;;;58.23;30.13;;;5.50;99.90;;;;;;5126046;27;20221;-57
2023/02/14 06:21:07;;;;;;;54.30;29.67;;;5.60;99.90;;;;;;5131755;27;20225;-57
2023/02/14 06:23:35;;;;;;;55.77;30.23;;;5.60;99.90;;;;;;5114117;27;20581;-58
2023/02/14 06:26:03;;;;;;;52.60;28.77;;;5.60;99.90;;;;;;5116469;27;20221;-57
2023/02/14 06:28:33;;;;;;;60.13;29.23;;;5.80;99.90;;;;;;5117715;27;20226;-57
2023/02/14 06:31:01;;;;;;;57.73;30.43;;;6.00;99.90;;;;;;5122522;27;20236;-58
2023/02/14 06:33:30;;;;;;;50.07;26.40;;;6.10;99.90;;;;;;5117890;27;20228;-56
2023/02/14 06:35:58;;;;;;;61.00;31.53;;;5.90;99.90;;;;;;5122349;27;20300;-58
2023/02/14 06:38:26;;;;;;;56.57;29.87;;;6.10;99.90;;;;;;5125012;27;20244;-57
2023/02/14 06:40:54;;;;;;;56.57;29.33;;;5.80;99.90;;;;;;5131916;27;20224;-58
2023/02/14 06:43:22;;;;;;;46.70;24.93;;;6.00;99.90;;;;;;5133253;27;20248;-58
2023/02/14 06:45:51;;;;;;;51.13;24.97;;;6.10;99.90;;;;;;5117390;27;20304;-58
2023/02/14 06:48:19;;;;;;;61.97;28.50;;;6.30;99.90;;;;;;5136705;27;20688;-58
2023/02/14 06:50:48;;;;;;;61.63;32.47;;;6.00;99.90;;;;;;5135877;27;20237;-58
2023/02/14 06:53:16;;;;;;;55.40;29.03;;;5.80;99.90;;;;;;5117620;27;20222;-56
2023/02/14 06:55:44;;;;;;;53.30;28.13;;;5.80;99.90;;;;;;5115497;28;20582;-58
2023/02/14 06:58:12;;;;;;;58.53;30.70;;;5.70;99.90;;;;;;5114606;28;20241;-58
2023/02/14 07:00:40;;;;;;;53.90;27.37;;;5.60;99.90;;;;;;5114687;28;20662;-57
2023/02/14 07:03:10;;;;;;;56.17;28.97;;;5.60;99.90;;;;;;5115316;28;20229;-58
2023/02/14 07:05:38;;;;;;;57.23;29.70;;;5.50;99.90;;;;;;5118050;27;20226;-58
2023/02/14 07:08:07;;;;;;;54.00;28.90;;;5.50;99.90;;;;;;5129407;27;20711;-58
2023/02/14 07:10:35;;;;;;;57.47;29.53;;;5.40;99.90;;;;;;5115285;28;20230;-58
2023/02/14 07:13:04;;;;;;;52.70;28.43;;;5.30;99.90;;;;;;5115583;28;20464;-58
2023/02/14 07:15:32;;;;;;;50.73;28.60;;;5.40;99.90;;;;;;5109825;28;20236;-58
2023/02/14 07:18:00;;;;;;;50.90;26.80;;;5.30;99.90;;;;;;5115350;28;20978;-59
2023/02/14 07:20:29;;;;;;;51.70;28.13;;;5.30;99.90;;;;;;5114762;28;20267;-58
2023/02/14 07:22:57;;;;;;;47.77;26.73;;;5.30;99.90;;;;;;5119820;27;20221;-58
2023/02/14 07:25:27;;;;;;;54.10;29.00;;;5.30;99.90;;;;;;5116065;27;20279;-58
2023/02/14 07:27:55;;;;;;;49.43;28.13;;;5.20;99.90;;;;;;5114786;28;20222;-58
2023/02/14 07:30:23;;;;;;;46.50;25.00;;;5.30;99.90;;;;;;5114290;28;20244;-57
2023/02/14 07:32:52;;;;;;;52.47;27.07;;;5.30;99.90;;;;;;5114579;28;20263;-58
2023/02/14 07:35:20;;;;;;;45.63;26.63;;;5.30;99.90;;;;;;5114910;28;20213;-57
2023/02/14 07:37:50;;;;;;;49.47;26.70;;;5.40;99.90;;;;;;5126363;27;20711;-58
2023/02/14 07:40:18;;;;;;;49.83;26.77;;;5.30;99.90;;;;;;5135096;27;20236;-57
2023/02/14 07:42:53;;;;;;;48.00;27.10;;;5.30;99.90;;;;;;5134826;27;20241;-58
2023/02/14 07:45:22;;;;;;;50.10;27.93;;;5.40;99.90;;;;;;5115130;27;20240;-58
2023/02/14 07:47:52;;;;;;;49.47;27.37;;;5.50;99.90;;;;;;5114258;28;20226;-58
2023/02/14 07:50:20;;;;;;;45.50;25.07;;;5.50;99.90;;;;;;5114295;28;20681;-57
2023/02/14 07:52:50;;;;;;;48.10;26.60;;;5.60;99.90;;;;;;5119434;27;20581;-58
2023/02/14 07:55:19;;;;;;;47.07;26.70;;;5.70;99.90;;;;;;5114107;28;20259;-57
2023/02/14 07:57:48;;;;;;;46.60;26.20;;;5.70;99.90;;;;;;5118068;27;20245;-59
2023/02/14 08:00:19;;;;;;;46.33;26.67;;;5.80;99.90;;;;;;5125302;27;20707;-58
2023/02/14 08:02:48;;;;;;;49.27;27.37;;;5.90;99.90;;;;;;5134718;27;20236;-58
2023/02/14 08:05:16;;;;;;;47.20;26.13;;;6.00;99.90;;;;;;5134637;27;20745;-59
2023/02/14 08:07:46;;;;;;;43.27;26.30;;;6.20;99.90;;;;;;5122314;27;20319;-57
2023/02/14 08:10:15;;;;;;;45.57;25.90;;;6.30;99.90;;;;;;5114252;28;20732;-58
2023/02/14 08:12:58;;;;;;;42.60;24.63;;;6.40;99.90;;;;;;5113748;28;20224;-59
2023/02/14 08:18:13;;;;;;;42.40;24.30;;;6.60;99.90;;;;;;5093320;28;20226;-58
2023/02/14 08:20:42;;;;;;;43.13;24.43;;;6.70;99.90;;;;;;5093280;28;20214;-59
2023/02/14 08:23:11;;;;;;;39.23;24.00;;;6.80;99.90;;;;;;5100735;28;20225;-58
2023/02/14 08:25:41;;;;;;;37.70;23.60;;;6.90;99.90;;;;;;5113500;28;20345;-58
2023/02/14 08:28:09;;;;;;;42.77;25.43;;;7.10;99.90;;;;;;5116770;27;20324;-57
2023/02/14 08:30:37;;;;;;;39.70;24.60;;;7.20;99.90;;;;;;5112079;27;20249;-58
2023/02/14 08:33:06;;;;;;;39.50;23.93;;;7.30;99.90;;;;;;5118633;27;20222;-58
2023/02/14 08:35:34;;;;;;;39.83;23.53;;;7.40;99.90;;;;;;5128663;27;20314;-58
2023/02/14 08:38:02;;;;;;;43.73;25.23;;;7.50;99.90;;;;;;5125210;27;20229;-58
2023/02/14 08:40:31;;;;;;;37.40;23.57;;;7.70;99.90;;;;;;5133783;27;20236;-58
2023/02/14 08:43:00;;;;;;;35.50;23.27;;;7.80;99.90;;;;;;5126570;27;20242;-59
2023/02/14 08:45:28;;;;;;;36.77;23.37;;;8.00;99.90;;;;;;5107677;28;20229;-58
2023/02/14 08:48:01;;;;;;;36.93;23.23;;;8.20;99.90;;;;;;5094637;28;20218;-58
2023/02/14 08:50:29;;;;;;;32.63;21.90;;;8.30;99.90;;;;;;5093083;28;20222;-58
2023/02/14 08:52:57;;;;;;;35.17;22.43;;;8.40;99.90;;;;;;5092946;28;20218;-58
2023/02/14 08:55:26;;;;;;;33.53;22.47;;;8.50;99.90;;;;;;5092835;28;20219;-57
2023/02/14 08:57:56;;;;;;;32.40;22.30;;;8.50;99.90;;;;;;5092917;28;20297;-59
2023/02/14 09:00:26;;;;;;;34.20;22.23;;;8.70;99.90;;;;;;5092545;28;20325;-59
2023/02/14 09:02:54;;;;;;;31.60;22.53;;;8.70;99.90;;;;;;5094449;28;20230;-59
2023/02/14 09:05:23;;;;;;;31.63;22.57;;;8.70;99.90;;;;;;5100138;28;20234;-59
2023/02/14 09:07:51;;;;;;;34.43;22.33;;;8.90;99.90;;;;;;5104843;28;20643;-59
2023/02/14 09:10:19;;;;;;;30.97;22.13;;;8.90;99.90;;;;;;5113342;28;20711;-58
2023/02/14 09:12:47;;;;;;;33.03;22.93;;;9.00;99.90;;;;;;5112774;28;20257;-59
2023/02/14 09:15:16;;;;;;;33.33;23.23;;;9.10;99.90;;;;;;5105271;28;20245;-58
2023/02/14 09:17:45;;;;;;;32.40;22.63;;;9.20;99.90;;;;;;5108863;28;20562;-55
2023/02/14 09:20:15;;;;;;;35.20;23.40;;;9.30;99.90;;;;;;5097243;28;20307;-59
2023/02/14 09:22:43;;;;;;;33.17;23.17;;;9.40;99.90;;;;;;5121057;27;20224;-59
2023/02/14 09:25:13;;;;;;;34.60;23.30;;;9.60;99.90;;;;;;5126060;27;20615;-59
2023/02/14 09:27:41;;;;;;;33.97;22.73;;;9.60;99.90;;;;;;5117221;28;20222;-59
2023/02/14 09:30:14;;;;;;;32.83;23.03;;;9.70;99.90;;;;;;5082750;28;20596;-59
2023/02/14 09:32:42;;;;;;;31.53;22.47;;;9.90;99.90;;;;;;5108036;28;20291;-59
2023/02/14 09:35:11;;;;;;;32.00;21.53;;;10.10;99.90;;;;;;5102499;28;20229;-59
2023/02/14 09:40:25;;;;;;;29.13;21.73;;;10.40;99.90;;;;;;5114699;28;20738;-56
2023/02/14 09:42:59;;;;;;;30.90;21.83;;;10.50;99.90;;;;;;5117591;27;20551;-59
2023/02/14 09:45:30;;;;;;;27.37;20.37;;;10.40;99.90;;;;;;5126731;27;20234;-58
2023/02/14 09:48:02;;;;;;;29.80;21.33;;;10.50;99.90;;;;;;5127455;27;20275;-59
2023/02/14 09:50:36;;;;;;;28.13;20.30;;;10.50;99.90;;;;;;5124829;27;20225;-58
2023/02/14 09:53:13;;;;;;;27.57;20.87;;;10.50;99.90;;;;;;5126033;27;20313;-59
2023/02/14 09:55:47;;;;;;;26.57;19.87;;;10.60;99.90;;;;;;5124269;27;20222;-59
2023/02/14 09:58:19;;;;;;;28.33;21.50;;;10.70;99.90;;;;;;5126069;27;20325;-59
2023/02/14 10:00:54;;;;;;;26.87;19.73;;;10.80;99.90;;;;;;5133144;27;20247;-59
2023/02/14 10:03:52;;;;;;;28.00;20.80;;;11.00;99.90;;;;;;5131478;27;20653;-59
2023/02/14 10:06:42;;;;;;;29.07;19.97;;;11.10;99.90;;;;;;5125324;27;20716;-59
2023/02/14 10:09:19;;;;;;;28.47;20.97;;;11.30;99.90;;;;;;5128469;27;20222;-58
2023/02/14 10:11:48;;;;;;;26.17;19.20;;;11.30;99.90;;;;;;5136642;27;20237;-58
2023/02/14 10:14:20;;;;;;;26.70;19.30;;;11.20;99.90;;;;;;5130484;27;20226;-59
2023/02/14 10:16:53;;;;;;;25.63;19.53;;;11.20;99.90;;;;;;5119191;27;20231;-59
2023/02/14 10:19:26;;;;;;;26.27;20.37;;;11.30;99.90;;;;;;5118832;27;20281;-59
2023/02/14 10:21:59;;;;;;;26.23;20.03;;;11.40;99.90;;;;;;5111899;27;20233;-59
2023/02/14 10:24:33;;;;;;;27.07;20.27;;;11.50;99.90;;;;;;5125551;27;20224;-58
2023/02/14 10:27:17;;;;;;;26.90;19.37;;;11.60;99.90;;;;;;5136664;27;20672;-58
2023/02/14 10:29:47;;;;;;;27.20;19.73;;;11.70;99.90;;;;;;5129408;27;20215;-59
2023/02/14 10:32:22;;;;;;;27.27;19.60;;;12.00;99.90;;;;;;5134535;27;20319;-58
2023/02/14 10:34:51;;;;;;;27.10;20.13;;;12.30;99.90;;;;;;5136322;27;20235;-59
2023/02/14 10:37:32;;;;;;;26.00;19.47;;;12.40;99.90;;;;;;5130198;27;20229;-59
2023/02/14 10:40:20;;;;;;;22.37;17.77;;;12.30;99.90;;;;;;5117156;27;20238;-60
2023/02/14 10:42:56;;;;;;;25.73;18.97;;;12.30;99.90;;;;;;5136197;27;20230;-59
2023/02/14 10:45:31;;;;;;;24.80;18.80;;;12.50;99.90;;;;;;5116059;27;20574;-59
2023/02/14 10:48:07;;;;;;;24.87;19.27;;;12.70;99.90;;;;;;5115510;28;20277;-60
2023/02/14 10:50:44;;;;;;;26.50;19.43;;;12.80;99.90;;;;;;5115676;28;20239;-58
2023/02/14 10:53:21;;;;;;;23.97;18.30;;;12.60;99.90;;;;;;5115646;28;20220;-59
2023/02/14 10:55:54;;;;;;;25.40;20.00;;;12.70;99.90;;;;;;5115713;28;20224;-59
2023/02/14 10:58:24;;;;;;;24.07;18.50;;;12.90;99.90;;;;;;5136043;27;20234;-59
2023/02/14 11:01:03;;;;;;;24.47;18.23;;;13.10;99.90;;;;;;5135665;27;20231;-59
2023/02/14 11:03:33;;;;;;;24.10;18.70;;;13.20;99.90;;;;;;5135801;27;20216;-59
2023/02/14 11:06:01;;;;;;;22.63;17.87;;;13.30;99.90;;;;;;5135610;27;20232;-58
2023/02/14 11:08:34;;;;;;;24.33;19.10;;;13.40;99.90;;;;;;5108525;27;20246;-59
2023/02/14 11:11:10;;;;;;;23.93;18.90;;;13.40;99.90;;;;;;5127706;27;20686;-59
2023/02/14 11:13:39;;;;;;;25.50;17.97;;;13.30;99.90;;;;;;5129637;27;20228;-59
2023/02/14 11:16:11;;;;;;;22.20;17.90;;;13.10;99.90;;;;;;5123243;27;20228;-59
2023/02/14 11:18:41;;;;;;;22.27;17.73;;;13.20;99.90;;;;;;5131922;27;20224;-59
2023/02/14 11:21:12;;;;;;;25.10;18.17;;;13.50;99.90;;;;;;5135732;27;20243;-59
2023/02/14 11:23:43;;;;;;;21.90;17.90;;;13.70;99.90;;;;;;5123555;27;20229;-59
2023/02/14 11:26:23;;;;;;;24.27;18.20;;;13.60;99.90;;;;;;5115045;28;20685;-59
2023/02/14 11:28:55;;;;;;;25.53;19.00;;;13.70;99.90;;;;;;5122959;27;20583;-59
2023/02/14 11:31:32;;;;;;;24.00;18.70;;;13.70;99.90;;;;;;5122251;27;20229;-60
2023/02/14 11:34:06;;;;;;;22.47;18.10;;;13.70;99.90;;;;;;5125191;27;20619;-59
2023/02/14 11:36:40;;;;;;;23.77;17.63;;;13.60;99.90;;;;;;5124163;27;20233;-59
2023/02/14 11:39:23;;;;;;;20.87;16.77;;;13.40;99.90;;;;;;5128875;27;20219;-59
2023/02/14 11:41:54;;;;;;;22.63;18.17;;;13.40;99.90;;;;;;5115556;27;20243;-59
2023/02/14 11:44:24;;;;;;;23.63;18.33;;;13.50;99.90;;;;;;5125120;27;20240;-59
2023/02/14 11:46:54;;;;;;;22.43;18.23;;;13.50;99.90;;;;;;5123570;27;21222;-59
2023/02/14 11:49:27;;;;;;;20.63;16.87;;;13.50;99.90;;;;;;5120423;27;20716;-59
2023/02/14 11:51:57;;;;;;;21.37;17.40;;;13.40;99.90;;;;;;5119331;27;20218;-59
2023/02/14 11:54:33;;;;;;;21.37;16.90;;;13.30;99.90;;;;;;5125865;27;20277;-59
2023/02/14 11:57:07;;;;;;;22.37;18.07;;;13.40;99.90;;;;;;5130540;27;20640;-59
2023/02/14 11:59:41;;;;;;;21.83;17.93;;;13.40;99.90;;;;;;5125645;27;20240;-59
2023/02/14 12:02:18;;;;;;;23.00;17.93;;;13.50;99.90;;;;;;5121235;27;20322;-58
2023/02/14 12:04:49;;;;;;;22.20;17.23;;;13.40;99.90;;;;;;5121292;27;20220;-59
2023/02/14 12:07:21;;;;;;;22.17;18.07;;;13.50;99.90;;;;;;5121877;27;20237;-59
2023/02/14 12:10:22;;;;;;;21.43;16.83;;;13.60;99.90;;;;;;5121479;27;20751;-57
2023/02/14 12:12:58;;;;;;;21.57;16.57;;;13.60;99.90;;;;;;5123636;27;20233;-59
2023/02/14 12:15:36;;;;;;;22.27;17.03;;;13.80;99.90;;;;;;5121964;27;20706;-59
2023/02/14 12:18:30;;;;;;;20.47;16.93;;;13.70;99.90;;;;;;5121835;27;20240;-59
2023/02/14 12:21:08;;;;;;;21.17;16.37;;;13.70;99.90;;;;;;5122242;27;20243;-59
2023/02/14 12:23:41;;;;;;;21.00;17.10;;;13.70;99.90;;;;;;5119867;27;20216;-59
2023/02/14 12:26:21;;;;;;;21.93;16.87;;;13.60;99.90;;;;;;5128409;27;20225;-59
2023/02/14 12:28:56;;;;;;;21.47;17.37;;;13.60;99.90;;;;;;5131162;27;20584;-59
2023/02/14 12:31:25;;;;;;;21.97;17.53;;;13.60;99.90;;;;;;5124762;27;20233;-58
2023/02/14 12:33:53;;;;;;;21.17;17.17;;;13.60;99.90;;;;;;5117502;27;20229;-59
2023/02/14 12:36:38;;;;;;;20.93;16.43;;;13.50;99.90;;;;;;5116834;27;20703;-59
2023/02/14 12:39:12;;;;;;;21.63;17.50;;;13.60;99.90;;;;;;5125246;27;20228;-59
2023/02/14 12:41:50;;;;;;;20.77;16.53;;;13.70;99.90;;;;;;5121894;27;20228;-59
2023/02/14 12:44:29;;;;;;;21.13;17.77;;;13.70;99.90;;;;;;5118664;27;20735;-59
2023/02/14 12:47:10;;;;;;;20.70;16.93;;;13.70;99.90;;;;;;5119389;27;20704;-59
2023/02/14 12:50:14;;;;;;;22.13;17.53;;;13.70;99.90;;;;;;5115192;27;20300;-59
2023/02/14 12:53:06;;;;;;;21.33;17.23;;;13.60;99.90;;;;;;5121056;27;20715;-59
2023/02/14 12:55:47;;;;;;;20.27;16.83;;;13.50;99.90;;;;;;5111944;27;20243;-59
2023/02/14 12:58:29;;;;;;;20.90;16.63;;;13.50;99.90;;;;;;5114787;27;20691;-59
2023/02/14 13:01:12;;;;;;;20.40;16.70;;;13.50;99.90;;;;;;5118927;27;20231;-58
2023/02/14 13:04:14;;;;;;;22.93;17.37;;;13.50;99.90;;;;;;5115722;28;20319;-59
2023/02/14 13:06:48;;;;;;;20.80;16.60;;;13.40;99.90;;;;;;5121908;27;20609;-59
2023/02/14 13:09:29;;;;;;;23.93;17.53;;;13.20;99.90;;;;;;5118793;27;20232;-60
2023/02/14 13:12:08;;;;;;;22.47;17.13;;;13.20;99.90;;;;;;5122228;28;20228;-59
2023/02/14 13:14:46;;;;;;;20.30;16.30;;;13.30;99.90;;;;;;5111755;28;20590;-59
2023/02/14 13:17:25;;;;;;;21.73;16.70;;;13.30;99.90;;;;;;5115059;28;20317;-59
2023/02/14 13:20:02;;;;;;;22.20;17.17;;;13.30;99.90;;;;;;5121343;28;20705;-59
2023/02/14 13:22:32;;;;;;;21.50;17.57;;;13.40;99.90;;;;;;5122173;28;20599;-59
2023/02/14 13:25:05;;;;;;;21.10;17.10;;;13.30;99.90;;;;;;5129675;28;20224;-59